sensor_id;sensor_type;location;lat;lon;timestamp;pressure;altitude;pressure_sealevel;temperature;humidity
78014;BME280;67222;50.182;8.734;2023-08-20T05:32:40;100942.25;;;20.45;96.83
78014;BME280;67222;50.182;8.734;2023-08-20T05:35:05;100951.03;;;20.58;96.47
78014;BME280;67222;50.182;8.734;2023-08-20T05:37:31;100952.09;;;20.56;96.70
78014;BME280;67222;50.182;8.734;2023-08-20T05:39:56;100955.66;;;20.62;97.05
78014;BME280;67222;50.182;8.734;2023-08-20T05:42:22;100952.69;;;20.64;97.24
78014;BME280;67222;50.182;8.734;2023-08-20T05:44:47;100957.16;;;20.75;96.81
78014;BME280;67222;50.182;8.734;2023-08-20T05:47:12;100960.44;;;20.82;97.12
78014;BME280;67222;50.182;8.734;2023-08-20T05:49:37;100962.19;;;20.93;97.12
78014;BME280;67222;50.182;8.734;2023-08-20T05:52:03;100960.31;;;20.99;97.65
78014;BME280;67222;50.182;8.734;2023-08-20T05:54:28;100964.47;;;21.06;96.66
78014;BME280;67222;50.182;8.734;2023-08-20T05:56:54;100965.31;;;21.17;96.98
78014;BME280;67222;50.182;8.734;2023-08-20T05:59:19;100958.88;;;21.23;97.29
78014;BME280;67222;50.182;8.734;2023-08-20T06:01:44;100958.66;;;21.30;95.87
78014;BME280;67222;50.182;8.734;2023-08-20T06:04:10;100960.31;;;21.36;95.68
78014;BME280;67222;50.182;8.734;2023-08-20T06:06:35;100962.56;;;21.44;95.01
78014;BME280;67222;50.182;8.734;2023-08-20T06:09:00;100957.44;;;21.48;95.58
78014;BME280;67222;50.182;8.734;2023-08-20T06:11:26;100967.75;;;21.56;95.65
78014;BME280;67222;50.182;8.734;2023-08-20T06:13:51;100960.50;;;21.61;95.30
78014;BME280;67222;50.182;8.734;2023-08-20T06:16:16;100960.22;;;21.63;95.15
78014;BME280;67222;50.182;8.734;2023-08-20T06:18:42;100960.81;;;21.75;95.12
78014;BME280;67222;50.182;8.734;2023-08-20T06:21:07;100961.41;;;21.82;95.06
78014;BME280;67222;50.182;8.734;2023-08-20T06:23:32;100966.03;;;21.87;95.17
78014;BME280;67222;50.182;8.734;2023-08-20T06:25:58;100974.72;;;21.89;95.05
78014;BME280;67222;50.182;8.734;2023-08-20T06:28:23;100973.16;;;22.03;95.15
78014;BME280;67222;50.182;8.734;2023-08-20T06:30:49;100977.28;;;22.11;93.55
78014;BME280;67222;50.182;8.734;2023-08-20T06:33:15;100981.09;;;22.15;93.06
78014;BME280;67222;50.182;8.734;2023-08-20T06:35:40;100979.22;;;22.20;91.04
78014;BME280;67222;50.182;8.734;2023-08-20T06:38:06;100988.47;;;22.29;90.63
78014;BME280;67222;50.182;8.734;2023-08-20T06:40:32;100989.28;;;22.30;90.35
78014;BME280;67222;50.182;8.734;2023-08-20T06:42:58;100998.81;;;22.38;91.53
78014;BME280;67222;50.182;8.734;2023-08-20T06:45:23;100994.47;;;22.36;90.28
78014;BME280;67222;50.182;8.734;2023-08-20T06:47:48;100998.28;;;22.35;90.75
78014;BME280;67222;50.182;8.734;2023-08-20T06:50:13;100996.66;;;22.34;90.52
78014;BME280;67222;50.182;8.734;2023-08-20T06:52:39;100995.56;;;22.35;89.95
78014;BME280;67222;50.182;8.734;2023-08-20T06:55:04;100996.66;;;22.34;90.88
78014;BME280;67222;50.182;8.734;2023-08-20T06:57:30;100995.28;;;22.37;90.98
78014;BME280;67222;50.182;8.734;2023-08-20T06:59:55;101000.44;;;22.33;90.52
78014;BME280;67222;50.182;8.734;2023-08-20T07:02:20;100998.25;;;22.30;90.39
78014;BME280;67222;50.182;8.734;2023-08-20T07:04:46;100995.28;;;22.37;89.04
78014;BME280;67222;50.182;8.734;2023-08-20T07:07:12;100992.84;;;22.41;89.45
78014;BME280;67222;50.182;8.734;2023-08-20T07:09:37;100998.84;;;22.48;89.70
78014;BME280;67222;50.182;8.734;2023-08-20T07:12:03;100999.38;;;22.50;88.62
78014;BME280;67222;50.182;8.734;2023-08-20T07:14:29;101001.59;;;22.58;86.90
78014;BME280;67222;50.182;8.734;2023-08-20T07:16:54;101005.38;;;22.67;88.82
78014;BME280;67222;50.182;8.734;2023-08-20T07:19:19;101001.59;;;22.68;88.84
78014;BME280;67222;50.182;8.734;2023-08-20T07:21:45;100995.88;;;22.64;87.77
78014;BME280;67222;50.182;8.734;2023-08-20T07:24:10;100999.41;;;22.60;86.64
78014;BME280;67222;50.182;8.734;2023-08-20T07:26:35;101005.38;;;22.62;87.78
78014;BME280;67222;50.182;8.734;2023-08-20T07:29:01;101005.94;;;22.59;86.79
78014;BME280;67222;50.182;8.734;2023-08-20T07:31:27;101019.25;;;22.60;86.77
78014;BME280;67222;50.182;8.734;2023-08-20T07:33:54;101013.81;;;22.65;87.36
78014;BME280;67222;50.182;8.734;2023-08-20T07:36:21;101012.47;;;22.73;88.22
78014;BME280;67222;50.182;8.734;2023-08-20T07:38:51;101019.28;;;22.76;87.66
78014;BME280;67222;50.182;8.734;2023-08-20T07:41:16;101015.19;;;22.78;87.66
78014;BME280;67222;50.182;8.734;2023-08-20T07:43:42;101016.28;;;22.77;87.94
78014;BME280;67222;50.182;8.734;2023-08-20T07:46:08;101015.75;;;22.75;86.09
78014;BME280;67222;50.182;8.734;2023-08-20T07:48:34;101017.38;;;22.81;87.25
78014;BME280;67222;50.182;8.734;2023-08-20T07:51:00;101018.22;;;22.82;87.75
78014;BME280;67222;50.182;8.734;2023-08-20T07:53:26;101020.09;;;22.81;87.62
78014;BME280;67222;50.182;8.734;2023-08-20T07:55:51;101013.34;;;22.89;87.82
78014;BME280;67222;50.182;8.734;2023-08-20T07:58:16;101010.63;;;22.89;87.73
78014;BME280;67222;50.182;8.734;2023-08-20T08:00:42;101012.81;;;22.92;87.52
78014;BME280;67222;50.182;8.734;2023-08-20T08:03:08;101005.72;;;22.96;88.28
78014;BME280;67222;50.182;8.734;2023-08-20T08:05:35;101016.34;;;22.98;86.75
78014;BME280;67222;50.182;8.734;2023-08-20T08:08:00;101010.88;;;23.03;87.35
78014;BME280;67222;50.182;8.734;2023-08-20T08:10:25;101015.22;;;23.04;88.23
78014;BME280;67222;50.182;8.734;2023-08-20T08:12:51;101013.63;;;23.08;88.15
78014;BME280;67222;50.182;8.734;2023-08-20T08:15:16;101011.44;;;23.10;87.84
78014;BME280;67222;50.182;8.734;2023-08-20T08:17:41;101013.34;;;23.14;87.17
78014;BME280;67222;50.182;8.734;2023-08-20T08:20:07;101015.78;;;23.16;86.58
78014;BME280;67222;50.182;8.734;2023-08-20T08:22:32;101017.94;;;23.24;86.89
78014;BME280;67222;50.182;8.734;2023-08-20T08:24:58;101015.50;;;23.27;86.29
78014;BME280;67222;50.182;8.734;2023-08-20T08:27:23;101013.88;;;23.32;85.77
78014;BME280;67222;50.182;8.734;2023-08-20T08:29:50;101030.44;;;23.40;85.83
78014;BME280;67222;50.182;8.734;2023-08-20T08:32:16;101023.13;;;23.46;85.86
78014;BME280;67222;50.182;8.734;2023-08-20T08:34:41;101016.84;;;23.50;86.15
78014;BME280;67222;50.182;8.734;2023-08-20T08:37:06;101019.28;;;23.57;85.84
78014;BME280;67222;50.182;8.734;2023-08-20T08:39:32;101029.38;;;23.62;85.39
78014;BME280;67222;50.182;8.734;2023-08-20T08:42:02;101029.09;;;23.63;84.81
78014;BME280;67222;50.182;8.734;2023-08-20T08:44:31;101031.53;;;23.70;85.22
78014;BME280;67222;50.182;8.734;2023-08-20T08:46:57;101020.88;;;23.78;84.79
78014;BME280;67222;50.182;8.734;2023-08-20T08:49:22;101020.56;;;23.90;85.14
78014;BME280;67222;50.182;8.734;2023-08-20T08:51:48;101023.81;;;23.97;85.54
78014;BME280;67222;50.182;8.734;2023-08-20T08:54:13;101021.91;;;24.03;84.51
78014;BME280;67222;50.182;8.734;2023-08-20T08:56:40;101024.88;;;24.06;85.15
78014;BME280;67222;50.182;8.734;2023-08-20T08:59:05;101021.59;;;24.09;84.28
78014;BME280;67222;50.182;8.734;2023-08-20T09:01:31;101021.84;;;24.18;83.52
78014;BME280;67222;50.182;8.734;2023-08-20T09:03:56;101022.03;;;24.27;83.89
78014;BME280;67222;50.182;8.734;2023-08-20T09:06:22;101022.56;;;24.34;84.11
78014;BME280;67222;50.182;8.734;2023-08-20T09:08:47;101015.19;;;24.39;84.78
78014;BME280;67222;50.182;8.734;2023-08-20T09:11:12;101023.63;;;24.43;83.80
78014;BME280;67222;50.182;8.734;2023-08-20T09:13:39;101010.22;;;24.52;81.46
78014;BME280;67222;50.182;8.734;2023-08-20T09:16:09;101006.38;;;24.58;82.40
78014;BME280;67222;50.182;8.734;2023-08-20T09:18:42;101007.09;;;24.68;81.17
78014;BME280;67222;50.182;8.734;2023-08-20T09:21:10;101012.50;;;24.79;81.59
78014;BME280;67222;50.182;8.734;2023-08-20T09:23:36;101010.28;;;24.81;81.53
78014;BME280;67222;50.182;8.734;2023-08-20T09:26:03;101008.63;;;24.85;80.39
78014;BME280;67222;50.182;8.734;2023-08-20T09:28:29;101008.03;;;24.88;80.64
78014;BME280;67222;50.182;8.734;2023-08-20T09:30:58;101002.00;;;24.96;79.96
78014;BME280;67222;50.182;8.734;2023-08-20T09:33:26;101004.63;;;25.11;78.04
78014;BME280;67222;50.182;8.734;2023-08-20T09:35:52;101001.19;;;25.29;78.03
78014;BME280;67222;50.182;8.734;2023-08-20T09:38:21;101004.38;;;25.36;77.14
78014;BME280;67222;50.182;8.734;2023-08-20T09:40:49;101004.66;;;25.35;77.11
78014;BME280;67222;50.182;8.734;2023-08-20T09:43:15;101008.97;;;25.41;75.55
78014;BME280;67222;50.182;8.734;2023-08-20T09:45:41;101001.50;;;25.52;75.73
78014;BME280;67222;50.182;8.734;2023-08-20T09:48:09;100998.41;;;25.58;75.63
78014;BME280;67222;50.182;8.734;2023-08-20T09:50:35;101001.59;;;25.65;74.01
78014;BME280;67222;50.182;8.734;2023-08-20T09:53:11;100998.34;;;25.69;73.27
78014;BME280;67222;50.182;8.734;2023-08-20T09:55:39;100999.50;;;25.86;73.91
78014;BME280;67222;50.182;8.734;2023-08-20T09:58:06;101005.84;;;26.01;72.33
78014;BME280;67222;50.182;8.734;2023-08-20T10:00:32;101004.34;;;26.13;72.61
78014;BME280;67222;50.182;8.734;2023-08-20T10:02:58;100995.13;;;26.28;71.80
78014;BME280;67222;50.182;8.734;2023-08-20T10:05:24;101001.06;;;26.35;70.04
78014;BME280;67222;50.182;8.734;2023-08-20T10:07:50;101007.00;;;26.42;69.62
78014;BME280;67222;50.182;8.734;2023-08-20T10:10:15;100999.13;;;26.54;71.66
78014;BME280;67222;50.182;8.734;2023-08-20T10:12:42;100998.69;;;26.66;68.48
78014;BME280;67222;50.182;8.734;2023-08-20T10:15:11;100996.38;;;26.73;68.82
78014;BME280;67222;50.182;8.734;2023-08-20T10:17:40;100996.53;;;26.82;70.33
78014;BME280;67222;50.182;8.734;2023-08-20T10:20:07;100997.97;;;26.93;69.43
78014;BME280;67222;50.182;8.734;2023-08-20T10:22:40;100992.44;;;26.98;68.01
78014;BME280;67222;50.182;8.734;2023-08-20T10:25:26;100994.66;;;27.15;68.13
78014;BME280;67222;50.182;8.734;2023-08-20T10:27:52;100999.22;;;27.20;67.08
78014;BME280;67222;50.182;8.734;2023-08-20T10:30:22;100999.13;;;27.25;67.31
78014;BME280;67222;50.182;8.734;2023-08-20T10:32:51;100997.78;;;27.22;66.47
78014;BME280;67222;50.182;8.734;2023-08-20T10:35:28;100988.69;;;27.40;66.40
78014;BME280;67222;50.182;8.734;2023-08-20T10:38:04;100991.47;;;27.54;65.11
78014;BME280;67222;50.182;8.734;2023-08-20T10:43:39;100986.22;;;27.71;65.81
78014;BME280;67222;50.182;8.734;2023-08-20T10:46:22;100985.50;;;27.80;64.57
78014;BME280;67222;50.182;8.734;2023-08-20T10:48:49;100982.13;;;27.83;64.02
78014;BME280;67222;50.182;8.734;2023-08-20T10:51:17;100975.84;;;27.96;64.74
78014;BME280;67222;50.182;8.734;2023-08-20T10:56:54;100970.53;;;27.99;62.54
78014;BME280;67222;50.182;8.734;2023-08-20T11:01:47;100966.34;;;28.29;65.11
78014;BME280;67222;50.182;8.734;2023-08-20T11:04:15;100973.75;;;28.15;62.38
78014;BME280;67222;50.182;8.734;2023-08-20T11:06:40;100974.66;;;28.38;65.41
78014;BME280;67222;50.182;8.734;2023-08-20T11:09:06;100967.31;;;28.47;62.22
78014;BME280;67222;50.182;8.734;2023-08-20T11:11:32;100974.34;;;28.62;64.40
78014;BME280;67222;50.182;8.734;2023-08-20T11:14:04;100977.84;;;28.76;61.52
78014;BME280;67222;50.182;8.734;2023-08-20T11:16:29;100974.78;;;29.00;62.68
78014;BME280;67222;50.182;8.734;2023-08-20T11:18:56;100977.31;;;29.19;60.86
78014;BME280;67222;50.182;8.734;2023-08-20T11:21:22;100968.69;;;29.34;60.31
78014;BME280;67222;50.182;8.734;2023-08-20T11:23:48;100972.34;;;29.52;57.23
78014;BME280;67222;50.182;8.734;2023-08-20T11:26:13;100973.84;;;29.67;60.98
78014;BME280;67222;50.182;8.734;2023-08-20T11:28:38;100975.00;;;29.74;54.88
78014;BME280;67222;50.182;8.734;2023-08-20T11:31:04;100979.09;;;29.85;55.99
78014;BME280;67222;50.182;8.734;2023-08-20T11:33:29;100986.41;;;29.99;55.55
78014;BME280;67222;50.182;8.734;2023-08-20T11:35:54;100970.41;;;30.09;57.54
78014;BME280;67222;50.182;8.734;2023-08-20T11:38:22;100973.03;;;30.14;55.44
78014;BME280;67222;50.182;8.734;2023-08-20T11:40:48;100969.63;;;30.18;51.91
78014;BME280;67222;50.182;8.734;2023-08-20T11:43:13;100961.72;;;30.33;54.49
78014;BME280;67222;50.182;8.734;2023-08-20T11:45:47;100965.75;;;30.53;54.30
78014;BME280;67222;50.182;8.734;2023-08-20T11:48:14;100956.19;;;30.68;53.81
78014;BME280;67222;50.182;8.734;2023-08-20T11:50:40;100960.06;;;30.84;51.93
78014;BME280;67222;50.182;8.734;2023-08-20T11:53:06;100956.03;;;30.90;50.78
78014;BME280;67222;50.182;8.734;2023-08-20T11:55:31;100953.38;;;31.02;49.94
78014;BME280;67222;50.182;8.734;2023-08-20T11:57:57;100958.22;;;31.14;50.26
78014;BME280;67222;50.182;8.734;2023-08-20T12:00:27;100955.91;;;31.33;50.52
78014;BME280;67222;50.182;8.734;2023-08-20T12:02:55;100955.69;;;31.47;51.63
78014;BME280;67222;50.182;8.734;2023-08-20T12:05:26;100950.91;;;31.56;53.75
78014;BME280;67222;50.182;8.734;2023-08-20T12:07:56;100951.66;;;31.74;48.18
78014;BME280;67222;50.182;8.734;2023-08-20T12:10:26;100951.75;;;31.86;48.71
78014;BME280;67222;50.182;8.734;2023-08-20T12:12:52;100949.75;;;31.96;50.61
78014;BME280;67222;50.182;8.734;2023-08-20T12:15:18;100948.69;;;32.09;50.55
78014;BME280;67222;50.182;8.734;2023-08-20T12:17:58;100947.22;;;32.32;46.56
78014;BME280;67222;50.182;8.734;2023-08-20T12:20:27;100940.91;;;32.32;45.74
78014;BME280;67222;50.182;8.734;2023-08-20T12:22:53;100946.16;;;32.45;47.21
78014;BME280;67222;50.182;8.734;2023-08-20T12:25:18;100933.66;;;32.81;46.23
78014;BME280;67222;50.182;8.734;2023-08-20T12:27:44;100940.66;;;32.91;47.85
78014;BME280;67222;50.182;8.734;2023-08-20T12:30:10;100940.13;;;32.97;45.68
78014;BME280;67222;50.182;8.734;2023-08-20T12:32:35;100940.28;;;33.13;45.71
78014;BME280;67222;50.182;8.734;2023-08-20T12:35:00;100942.16;;;33.33;46.43
78014;BME280;67222;50.182;8.734;2023-08-20T12:37:27;100936.31;;;33.47;45.20
78014;BME280;67222;50.182;8.734;2023-08-20T12:39:53;100925.09;;;33.92;43.91
78014;BME280;67222;50.182;8.734;2023-08-20T12:42:18;100920.72;;;34.19;40.77
78014;BME280;67222;50.182;8.734;2023-08-20T12:44:44;100929.38;;;34.86;47.68
78014;BME280;67222;50.182;8.734;2023-08-20T12:47:09;100923.94;;;35.21;41.40
78014;BME280;67222;50.182;8.734;2023-08-20T12:49:34;100916.69;;;35.48;39.87
78014;BME280;67222;50.182;8.734;2023-08-20T12:51:59;100913.53;;;36.39;37.39
78014;BME280;67222;50.182;8.734;2023-08-20T12:54:25;100911.03;;;36.95;31.64
78014;BME280;67222;50.182;8.734;2023-08-20T12:56:50;100913.13;;;36.37;31.12
78014;BME280;67222;50.182;8.734;2023-08-20T12:59:15;100912.13;;;37.37;35.17
78014;BME280;67222;50.182;8.734;2023-08-20T13:01:41;100916.44;;;37.57;34.41
78014;BME280;67222;50.182;8.734;2023-08-20T13:04:06;100913.28;;;37.58;34.28
78014;BME280;67222;50.182;8.734;2023-08-20T13:06:32;100904.06;;;37.81;31.99
78014;BME280;67222;50.182;8.734;2023-08-20T13:08:58;100911.28;;;38.15;34.22
78014;BME280;67222;50.182;8.734;2023-08-20T13:11:24;100907.88;;;38.29;33.22
78014;BME280;67222;50.182;8.734;2023-08-20T13:13:51;100902.81;;;38.38;33.29
78014;BME280;67222;50.182;8.734;2023-08-20T13:16:18;100897.91;;;39.54;35.27
78014;BME280;67222;50.182;8.734;2023-08-20T13:18:44;100891.31;;;39.90;29.43
78014;BME280;67222;50.182;8.734;2023-08-20T13:21:10;100889.69;;;38.76;30.34
78014;BME280;67222;50.182;8.734;2023-08-20T13:23:35;100888.84;;;39.75;32.47
78014;BME280;67222;50.182;8.734;2023-08-20T13:26:00;100886.69;;;40.30;29.71
78014;BME280;67222;50.182;8.734;2023-08-20T13:28:26;100880.84;;;41.03;29.04
78014;BME280;67222;50.182;8.734;2023-08-20T13:30:52;100880.03;;;40.99;27.29
78014;BME280;67222;50.182;8.734;2023-08-20T13:33:17;100880.38;;;41.54;27.86
78014;BME280;67222;50.182;8.734;2023-08-20T13:35:42;100885.50;;;40.31;27.93
78014;BME280;67222;50.182;8.734;2023-08-20T13:38:08;100886.75;;;40.48;28.78
78014;BME280;67222;50.182;8.734;2023-08-20T13:40:33;100885.16;;;39.53;29.78
78014;BME280;67222;50.182;8.734;2023-08-20T13:42:58;100879.97;;;40.42;31.78
78014;BME280;67222;50.182;8.734;2023-08-20T13:45:24;100885.66;;;40.95;31.80
78014;BME280;67222;50.182;8.734;2023-08-20T13:47:49;100890.75;;;40.47;28.89
78014;BME280;67222;50.182;8.734;2023-08-20T13:50:15;100881.50;;;39.45;30.88
78014;BME280;67222;50.182;8.734;2023-08-20T13:52:40;100878.84;;;39.63;30.31
78014;BME280;67222;50.182;8.734;2023-08-20T13:55:06;100881.38;;;39.31;30.12
78014;BME280;67222;50.182;8.734;2023-08-20T13:57:31;100871.34;;;38.75;32.44
78014;BME280;67222;50.182;8.734;2023-08-20T13:59:57;100877.13;;;38.96;30.75
78014;BME280;67222;50.182;8.734;2023-08-20T14:02:22;100883.03;;;38.88;30.62
78014;BME280;67222;50.182;8.734;2023-08-20T14:04:48;100870.97;;;38.39;31.79
78014;BME280;67222;50.182;8.734;2023-08-20T14:07:13;100881.00;;;37.54;33.08
78014;BME280;67222;50.182;8.734;2023-08-20T14:09:38;100877.75;;;38.08;35.15
78014;BME280;67222;50.182;8.734;2023-08-20T14:12:05;100869.94;;;38.55;32.54
78014;BME280;67222;50.182;8.734;2023-08-20T14:14:30;100866.75;;;38.53;33.51
78014;BME280;67222;50.182;8.734;2023-08-20T14:16:56;100867.69;;;37.97;33.10
78014;BME280;67222;50.182;8.734;2023-08-20T14:19:21;100866.28;;;37.80;36.17
78014;BME280;67222;50.182;8.734;2023-08-20T14:21:46;100870.31;;;37.29;34.86
78014;BME280;67222;50.182;8.734;2023-08-20T14:24:11;100871.28;;;37.97;35.53
78014;BME280;67222;50.182;8.734;2023-08-20T14:26:37;100879.28;;;38.02;31.30
78014;BME280;67222;50.182;8.734;2023-08-20T14:29:02;100864.63;;;37.75;35.38
78014;BME280;67222;50.182;8.734;2023-08-20T14:31:28;100867.69;;;37.70;36.96
78014;BME280;67222;50.182;8.734;2023-08-20T14:33:54;100857.94;;;37.53;33.11
78014;BME280;67222;50.182;8.734;2023-08-20T14:36:19;100862.25;;;37.51;30.95
78014;BME280;67222;50.182;8.734;2023-08-20T14:38:45;100853.50;;;37.49;32.54
78014;BME280;67222;50.182;8.734;2023-08-20T14:41:10;100858.09;;;37.64;32.02
78014;BME280;67222;50.182;8.734;2023-08-20T14:43:35;100850.91;;;37.10;35.62
78014;BME280;67222;50.182;8.734;2023-08-20T14:46:01;100847.69;;;36.62;36.94
78014;BME280;67222;50.182;8.734;2023-08-20T14:48:26;100852.38;;;36.58;36.10
78014;BME280;67222;50.182;8.734;2023-08-20T14:50:53;100854.22;;;36.08;35.84
78014;BME280;67222;50.182;8.734;2023-08-20T14:53:18;100841.63;;;35.95;36.25
78014;BME280;67222;50.182;8.734;2023-08-20T14:55:44;100851.34;;;36.05;39.62
78014;BME280;67222;50.182;8.734;2023-08-20T14:58:10;100845.59;;;35.94;41.63
78014;BME280;67222;50.182;8.734;2023-08-20T15:00:35;100847.31;;;35.48;39.03
78014;BME280;67222;50.182;8.734;2023-08-20T15:03:01;100848.44;;;34.80;39.00
78014;BME280;67222;50.182;8.734;2023-08-20T15:05:27;100845.28;;;33.94;40.58
78014;BME280;67222;50.182;8.734;2023-08-20T15:07:52;100842.56;;;34.10;46.51
78014;BME280;67222;50.182;8.734;2023-08-20T15:10:18;100836.88;;;33.91;41.99
78014;BME280;67222;50.182;8.734;2023-08-20T15:12:43;100836.25;;;33.57;41.69
78014;BME280;67222;50.182;8.734;2023-08-20T15:15:09;100848.13;;;33.46;47.05
78014;BME280;67222;50.182;8.734;2023-08-20T15:17:35;100843.66;;;33.41;43.67
78014;BME280;67222;50.182;8.734;2023-08-20T15:20:01;100849.38;;;33.24;46.98
78014;BME280;67222;50.182;8.734;2023-08-20T15:22:26;100844.31;;;32.89;47.67
78014;BME280;67222;50.182;8.734;2023-08-20T15:24:52;100837.84;;;32.73;50.53
78014;BME280;67222;50.182;8.734;2023-08-20T15:27:18;100844.34;;;32.44;46.31
78014;BME280;67222;50.182;8.734;2023-08-20T15:29:44;100839.09;;;32.30;47.85
78014;BME280;67222;50.182;8.734;2023-08-20T15:32:10;100835.34;;;32.14;47.55
78014;BME280;67222;50.182;8.734;2023-08-20T15:34:35;100831.19;;;32.08;51.55
78014;BME280;67222;50.182;8.734;2023-08-20T15:37:00;100842.81;;;31.92;53.26
78014;BME280;67222;50.182;8.734;2023-08-20T15:39:25;100834.41;;;31.68;53.15
78014;BME280;67222;50.182;8.734;2023-08-20T15:41:51;100843.81;;;31.46;53.11
78014;BME280;67222;50.182;8.734;2023-08-20T15:44:16;100840.81;;;31.30;55.76
78014;BME280;67222;50.182;8.734;2023-08-20T15:46:41;100836.16;;;31.14;49.70
78014;BME280;67222;50.182;8.734;2023-08-20T15:49:07;100831.22;;;30.98;53.53
78014;BME280;67222;50.182;8.734;2023-08-20T15:51:33;100839.88;;;30.88;57.64
78014;BME280;67222;50.182;8.734;2023-08-20T15:53:59;100838.59;;;30.77;56.36
78014;BME280;67222;50.182;8.734;2023-08-20T15:56:24;100832.47;;;30.63;56.06
78014;BME280;67222;50.182;8.734;2023-08-20T15:58:50;100831.22;;;30.43;56.12
78014;BME280;67222;50.182;8.734;2023-08-20T16:01:15;100832.19;;;30.38;58.73
78014;BME280;67222;50.182;8.734;2023-08-20T16:03:40;100835.28;;;30.28;60.10
78014;BME280;67222;50.182;8.734;2023-08-20T16:06:07;100832.25;;;30.12;61.28
78014;BME280;67222;50.182;8.734;2023-08-20T16:08:33;100830.44;;;29.99;60.13
78014;BME280;67222;50.182;8.734;2023-08-20T16:10:58;100831.56;;;29.90;60.70
78014;BME280;67222;50.182;8.734;2023-08-20T16:13:23;100835.13;;;29.81;59.12
78014;BME280;67222;50.182;8.734;2023-08-20T16:15:48;100833.16;;;29.73;61.42
78014;BME280;67222;50.182;8.734;2023-08-20T16:18:14;100830.25;;;29.61;61.42
78014;BME280;67222;50.182;8.734;2023-08-20T16:20:39;100822.47;;;29.54;60.95
78014;BME280;67222;50.182;8.734;2023-08-20T16:23:04;100827.00;;;29.50;62.25
78014;BME280;67222;50.182;8.734;2023-08-20T16:25:30;100826.16;;;29.41;61.25
78014;BME280;67222;50.182;8.734;2023-08-20T16:27:56;100831.47;;;29.29;63.76
78014;BME280;67222;50.182;8.734;2023-08-20T16:30:21;100828.88;;;29.24;63.01
78014;BME280;67222;50.182;8.734;2023-08-20T16:32:47;100824.47;;;29.14;61.15
78014;BME280;67222;50.182;8.734;2023-08-20T16:35:12;100832.19;;;29.04;63.17
78014;BME280;67222;50.182;8.734;2023-08-20T16:37:37;100832.78;;;28.92;63.24
78014;BME280;67222;50.182;8.734;2023-08-20T16:40:03;100837.63;;;28.86;61.90
78014;BME280;67222;50.182;8.734;2023-08-20T16:42:33;100840.75;;;28.71;64.67
78014;BME280;67222;50.182;8.734;2023-08-20T16:44:58;100833.78;;;28.65;63.74
78014;BME280;67222;50.182;8.734;2023-08-20T16:47:23;100835.66;;;28.56;63.12
78014;BME280;67222;50.182;8.734;2023-08-20T16:49:49;100841.28;;;28.51;62.97
78014;BME280;67222;50.182;8.734;2023-08-20T16:52:14;100831.53;;;28.45;63.20
78014;BME280;67222;50.182;8.734;2023-08-20T16:54:43;100831.69;;;28.40;64.38
78014;BME280;67222;50.182;8.734;2023-08-20T16:57:08;100835.03;;;28.37;65.98
78014;BME280;67222;50.182;8.734;2023-08-20T16:59:34;100845.66;;;28.29;65.24
78014;BME280;67222;50.182;8.734;2023-08-20T17:01:59;100829.41;;;28.19;67.68
78014;BME280;67222;50.182;8.734;2023-08-20T17:04:25;100837.28;;;28.12;67.98
78014;BME280;67222;50.182;8.734;2023-08-20T17:06:53;100823.97;;;28.05;68.10
78014;BME280;67222;50.182;8.734;2023-08-20T17:09:18;100829.91;;;27.99;68.69
78014;BME280;67222;50.182;8.734;2023-08-20T17:11:43;100818.56;;;27.92;68.99
78014;BME280;67222;50.182;8.734;2023-08-20T17:14:09;100823.03;;;27.88;69.17
78014;BME280;67222;50.182;8.734;2023-08-20T17:16:34;100822.78;;;27.75;68.91
78014;BME280;67222;50.182;8.734;2023-08-20T17:18:59;100826.97;;;27.73;69.20
78014;BME280;67222;50.182;8.734;2023-08-20T17:21:25;100826.75;;;27.69;69.70
78014;BME280;67222;50.182;8.734;2023-08-20T17:23:50;100824.72;;;27.61;68.75
78014;BME280;67222;50.182;8.734;2023-08-20T17:26:15;100830.13;;;27.53;68.17
78014;BME280;67222;50.182;8.734;2023-08-20T17:28:41;100828.59;;;27.46;69.37
78014;BME280;67222;50.182;8.734;2023-08-20T17:31:06;100822.84;;;27.34;69.89
78014;BME280;67222;50.182;8.734;2023-08-20T17:33:31;100819.88;;;27.31;69.46
78014;BME280;67222;50.182;8.734;2023-08-20T17:35:56;100816.75;;;27.24;69.52
78014;BME280;67222;50.182;8.734;2023-08-20T17:38:22;100821.84;;;27.17;69.64
78014;BME280;67222;50.182;8.734;2023-08-20T17:40:48;100818.88;;;27.13;69.22
78014;BME280;67222;50.182;8.734;2023-08-20T17:43:14;100822.03;;;27.06;69.50
78014;BME280;67222;50.182;8.734;2023-08-20T17:45:40;100813.41;;;26.99;69.84
78014;BME280;67222;50.182;8.734;2023-08-20T17:48:06;100814.09;;;26.91;68.93
78014;BME280;67222;50.182;8.734;2023-08-20T17:50:37;100820.69;;;26.90;68.59
78014;BME280;67222;50.182;8.734;2023-08-20T17:53:03;100815.63;;;26.83;69.36
78014;BME280;67222;50.182;8.734;2023-08-20T17:55:31;100830.22;;;26.79;70.69
78014;BME280;67222;50.182;8.734;2023-08-20T17:57:56;100821.06;;;26.70;69.05
78014;BME280;67222;50.182;8.734;2023-08-20T18:00:22;100826.63;;;26.65;69.37
78014;BME280;67222;50.182;8.734;2023-08-20T18:02:47;100825.94;;;26.59;69.62
78014;BME280;67222;50.182;8.734;2023-08-20T18:05:12;100827.91;;;26.53;69.93
78014;BME280;67222;50.182;8.734;2023-08-20T18:07:38;100834.00;;;26.50;68.79
78014;BME280;67222;50.182;8.734;2023-08-20T18:10:03;100834.09;;;26.45;68.40
78014;BME280;67222;50.182;8.734;2023-08-20T18:12:29;100838.25;;;26.43;69.14
78014;BME280;67222;50.182;8.734;2023-08-20T18:14:54;100846.22;;;26.39;68.82
78014;BME280;67222;50.182;8.734;2023-08-20T18:17:19;100846.06;;;26.31;68.73
78014;BME280;67222;50.182;8.734;2023-08-20T18:19:45;100850.22;;;26.28;67.98
78014;BME280;67222;50.182;8.734;2023-08-20T18:22:10;100846.97;;;26.26;68.08
78014;BME280;67222;50.182;8.734;2023-08-20T18:24:36;100847.03;;;26.21;68.06